createdAt,value
2022-07-31T00:00:29.593Z,1.90
2022-07-31T00:02:58.913Z,1.90
2022-07-31T00:05:27.478Z,1.75
2022-07-31T00:07:55.738Z,1.70
2022-07-31T00:10:25.385Z,1.90
2022-07-31T00:12:53.749Z,2.33
2022-07-31T00:15:22.168Z,1.77
2022-07-31T00:17:50.742Z,2.03
2022-07-31T00:20:19.453Z,1.50
2022-07-31T00:22:49.013Z,2.00
2022-07-31T00:25:18.856Z,1.85
2022-07-31T00:27:48.617Z,2.00
2022-07-31T00:30:18.802Z,2.05
2022-07-31T00:32:48.890Z,1.90
2022-07-31T00:35:20.374Z,1.75
2022-07-31T00:37:48.625Z,1.50
2022-07-31T00:40:18.595Z,2.03
2022-07-31T00:42:48.000Z,1.70
2022-07-31T00:45:16.068Z,1.63
2022-07-31T00:47:44.356Z,1.83
2022-07-31T00:50:14.267Z,1.88
2022-07-31T00:52:43.278Z,2.30
2022-07-31T00:55:11.505Z,1.75
2022-07-31T00:57:39.658Z,1.90
2022-07-31T01:00:10.863Z,1.90
2022-07-31T01:02:46.463Z,2.28
2022-07-31T01:05:15.556Z,1.55
2022-07-31T01:07:43.585Z,1.65
2022-07-31T01:10:15.601Z,1.92
2022-07-31T01:12:54.333Z,1.92
2022-07-31T01:15:25.468Z,1.60
2022-07-31T01:17:54.681Z,1.52
2022-07-31T01:20:22.797Z,1.70
2022-07-31T01:23:09.536Z,2.30
2022-07-31T01:25:56.121Z,2.00
2022-07-31T01:28:59.021Z,2.00
2022-07-31T01:31:31.581Z,1.50
2022-07-31T01:34:06.878Z,2.15
2022-07-31T01:36:37.926Z,2.03
2022-07-31T01:39:06.725Z,1.67
2022-07-31T01:41:44.622Z,2.42
2022-07-31T01:44:16.625Z,2.03
2022-07-31T01:46:46.716Z,2.45
2022-07-31T01:49:19.064Z,2.17
2022-07-31T01:51:50.191Z,3.22
2022-07-31T01:54:21.730Z,1.88
2022-07-31T01:56:51.892Z,2.40
2022-07-31T01:59:24.460Z,2.30
2022-07-31T02:02:13.411Z,2.25
2022-07-31T02:04:42.086Z,2.47
2022-07-31T02:07:10.998Z,2.28
2022-07-31T02:09:52.006Z,2.55
2022-07-31T02:12:33.190Z,2.05
2022-07-31T02:15:05.793Z,2.40
2022-07-31T02:17:35.156Z,2.45
2022-07-31T02:20:34.178Z,3.47
2022-07-31T02:23:03.714Z,3.15
2022-07-31T02:25:36.005Z,2.72
2022-07-31T02:28:11.008Z,2.35
2022-07-31T02:30:46.297Z,2.30
2022-07-31T02:33:23.328Z,2.15
2022-07-31T02:35:57.723Z,1.85
2022-07-31T02:38:30.506Z,1.98
2022-07-31T02:41:01.704Z,2.60
2022-07-31T02:43:35.047Z,2.33
2022-07-31T02:46:21.285Z,2.17
2022-07-31T02:48:52.224Z,2.20
2022-07-31T02:51:27.204Z,2.10
2022-07-31T02:54:00.473Z,2.22
2022-07-31T02:56:37.097Z,2.42
2022-07-31T02:59:09.037Z,1.95
2022-07-31T03:01:59.799Z,2.38
2022-07-31T03:04:33.297Z,2.22
2022-07-31T03:07:02.415Z,1.83
2022-07-31T03:09:33.195Z,2.10
2022-07-31T03:12:21.659Z,2.30
2022-07-31T03:14:51.415Z,2.20
2022-07-31T03:17:22.554Z,2.25
2022-07-31T03:19:53.522Z,2.00
2022-07-31T03:22:22.009Z,2.30
2022-07-31T03:24:52.425Z,2.40
2022-07-31T03:27:20.733Z,2.72
2022-07-31T03:29:50.734Z,2.25
2022-07-31T03:32:22.649Z,1.95
2022-07-31T03:34:51.985Z,2.33
2022-07-31T03:37:22.341Z,2.10
2022-07-31T03:39:52.609Z,1.98
2022-07-31T03:42:21.587Z,1.88
2022-07-31T03:44:50.614Z,2.35
2022-07-31T03:47:19.593Z,2.30
2022-07-31T03:49:50.313Z,2.05
2022-07-31T03:52:20.532Z,1.90
2022-07-31T03:54:51.733Z,2.10
2022-07-31T03:57:25.344Z,2.20
2022-07-31T03:59:59.386Z,2.03
2022-07-31T04:02:29.910Z,2.03
2022-07-31T04:05:30.519Z,2.08
2022-07-31T04:08:01.131Z,2.15
2022-07-31T04:10:31.669Z,1.98
2022-07-31T04:13:02.779Z,2.22
2022-07-31T04:15:34.288Z,2.33
2022-07-31T04:18:04.415Z,1.98
2022-07-31T04:20:39.953Z,1.90
2022-07-31T04:23:09.274Z,2.47
2022-07-31T04:25:56.555Z,2.75
2022-07-31T04:28:39.224Z,2.15
2022-07-31T04:31:08.089Z,2.75
2022-07-31T04:33:47.304Z,1.90
2022-07-31T04:36:30.303Z,2.13
2022-07-31T04:39:03.921Z,2.15
2022-07-31T04:41:34.050Z,2.10
2022-07-31T04:44:05.109Z,3.42
2022-07-31T04:46:53.444Z,2.50
2022-07-31T04:49:22.958Z,2.78
2022-07-31T04:51:55.022Z,2.15
2022-07-31T04:54:25.530Z,2.45
2022-07-31T04:56:59.803Z,2.95
2022-07-31T05:00:00.599Z,2.13
2022-07-31T05:02:21.892Z,2.60
2022-07-31T05:04:56.664Z,2.90
2022-07-31T05:07:37.926Z,2.50
2022-07-31T05:10:33.648Z,3.53
2022-07-31T05:13:04.061Z,2.75
2022-07-31T05:15:37.875Z,2.45
2022-07-31T05:18:10.366Z,2.58
2022-07-31T05:20:57.330Z,2.70
2022-07-31T05:23:51.028Z,3.17
2022-07-31T05:26:27.283Z,2.70
2022-07-31T05:28:58.479Z,2.75
2022-07-31T05:31:27.852Z,3.05
2022-07-31T05:33:57.716Z,2.72
2022-07-31T05:36:26.101Z,3.25
2022-07-31T05:38:55.769Z,3.03
2022-07-31T05:41:34.028Z,2.40
2022-07-31T05:44:16.504Z,3.05
2022-07-31T05:46:47.564Z,2.72
2022-07-31T05:49:16.458Z,3.42
2022-07-31T05:51:47.579Z,3.30
2022-07-31T05:54:17.618Z,2.95
2022-07-31T05:57:32.825Z,2.60
2022-07-31T06:00:04.004Z,3.63
2022-07-31T06:02:40.600Z,2.75
2022-07-31T06:05:22.886Z,3.38
2022-07-31T06:07:52.070Z,3.45
2022-07-31T06:10:24.897Z,3.47
2022-07-31T06:12:53.670Z,3.42
2022-07-31T06:15:22.380Z,3.90
2022-07-31T06:17:51.055Z,3.60
2022-07-31T06:20:25.926Z,3.60
2022-07-31T06:22:55.908Z,3.72
2022-07-31T06:25:34.936Z,4.07
2022-07-31T06:28:11.921Z,3.28
2022-07-31T06:30:43.386Z,3.33
2022-07-31T06:33:17.217Z,3.80
2022-07-31T06:36:04.416Z,3.90
2022-07-31T06:38:41.529Z,3.63
2022-07-31T06:41:49.759Z,3.92
2022-07-31T06:44:34.487Z,3.88
2022-07-31T06:47:40.691Z,3.78
2022-07-31T06:50:19.012Z,3.70
2022-07-31T06:52:57.540Z,3.60
2022-07-31T06:55:28.685Z,4.00
2022-07-31T06:58:01.954Z,3.90
2022-07-31T07:00:30.809Z,3.92
2022-07-31T07:03:02.064Z,4.00
2022-07-31T07:05:34.790Z,3.70
2022-07-31T07:08:08.623Z,4.07
2022-07-31T07:10:39.165Z,3.80
2022-07-31T07:13:24.887Z,4.50
2022-07-31T07:18:45.630Z,4.03
2022-07-31T07:21:16.727Z,4.07
2022-07-31T07:23:45.745Z,4.03
2022-07-31T07:26:20.887Z,4.70
2022-07-31T07:28:54.521Z,4.43
2022-07-31T07:31:31.669Z,4.00
2022-07-31T07:34:11.248Z,4.55
2022-07-31T07:36:42.160Z,4.82
2022-07-31T07:39:20.469Z,4.72
2022-07-31T07:44:26.936Z,4.47
2022-07-31T07:49:29.048Z,4.93
2022-07-31T07:52:28.980Z,5.13
2022-07-31T07:55:05.722Z,4.47
2022-07-31T07:58:01.127Z,5.28
2022-07-31T08:01:00.504Z,5.03
2022-07-31T08:03:49.467Z,5.43
2022-07-31T08:06:23.608Z,4.95
2022-07-31T08:08:55.611Z,5.10
2022-07-31T08:11:45.809Z,5.68
2022-07-31T08:14:26.331Z,5.07
2022-07-31T08:17:22.865Z,6.40
2022-07-31T08:19:55.411Z,4.93
2022-07-31T08:22:24.105Z,5.72
2022-07-31T08:24:52.019Z,5.60
2022-07-31T08:27:39.556Z,5.75
2022-07-31T08:30:09.743Z,5.90
2022-07-31T08:32:41.569Z,5.78
2022-07-31T08:35:37.699Z,5.25
2022-07-31T08:38:11.107Z,6.05
2022-07-31T08:40:59.196Z,4.90
2022-07-31T08:44:02.331Z,6.15
2022-07-31T08:46:24.418Z,6.67
2022-07-31T08:49:00.046Z,5.35
2022-07-31T08:51:32.893Z,6.57
2022-07-31T08:54:46.907Z,5.95
2022-07-31T08:57:19.303Z,6.10
2022-07-31T08:59:52.832Z,6.75
2022-07-31T09:02:23.627Z,6.70
2022-07-31T09:05:18.458Z,7.03
2022-07-31T09:07:48.923Z,7.13
2022-07-31T09:10:26.682Z,7.38
2022-07-31T09:12:58.187Z,8.13
2022-07-31T09:15:31.280Z,8.07
2022-07-31T09:18:05.057Z,10.20
2022-07-31T09:20:38.186Z,9.35
2022-07-31T09:23:09.103Z,9.50
2022-07-31T09:25:51.789Z,9.48
2022-07-31T09:28:23.372Z,10.85
2022-07-31T09:30:57.357Z,11.07
2022-07-31T09:33:55.900Z,9.93
2022-07-31T09:36:43.204Z,11.02
2022-07-31T09:39:29.988Z,11.45
2022-07-31T09:42:17.272Z,11.73
2022-07-31T09:45:21.586Z,11.55
2022-07-31T09:48:03.947Z,13.00
2022-07-31T09:50:32.170Z,11.10
2022-07-31T09:53:02.353Z,13.68
2022-07-31T09:55:36.428Z,12.07
2022-07-31T09:58:06.443Z,11.40
2022-07-31T10:00:42.139Z,11.80
2022-07-31T10:03:14.745Z,12.52
2022-07-31T10:05:44.031Z,12.63
2022-07-31T10:08:17.797Z,12.48
2022-07-31T10:11:07.197Z,12.02
2022-07-31T10:13:55.225Z,11.85
2022-07-31T10:16:28.430Z,13.05
2022-07-31T10:19:18.574Z,12.43
2022-07-31T10:22:10.612Z,13.20
2022-07-31T10:24:48.867Z,11.95
2022-07-31T10:27:19.143Z,12.32
2022-07-31T10:29:56.776Z,13.48
2022-07-31T10:32:30.673Z,12.85
2022-07-31T10:35:20.595Z,13.60
2022-07-31T10:38:09.473Z,13.07
2022-07-31T10:41:11.692Z,13.68
2022-07-31T10:43:47.846Z,13.77
2022-07-31T10:46:28.884Z,13.55
2022-07-31T10:49:46.165Z,14.15
2022-07-31T10:53:00.502Z,14.82
2022-07-31T10:55:38.493Z,14.85
2022-07-31T10:58:22.648Z,14.02
2022-07-31T11:01:06.737Z,14.40
2022-07-31T11:04:05.282Z,14.35
2022-07-31T11:07:15.919Z,16.60
2022-07-31T11:10:12.212Z,16.65
2022-07-31T11:13:05.118Z,14.73
2022-07-31T11:16:08.261Z,14.02
2022-07-31T11:18:59.903Z,15.98
2022-07-31T11:21:39.396Z,14.52
2022-07-31T11:24:19.183Z,15.40
2022-07-31T11:26:54.518Z,14.73
2022-07-31T11:29:58.525Z,16.38
2022-07-31T11:32:26.445Z,15.32
2022-07-31T11:34:59.165Z,16.15
2022-07-31T11:37:57.081Z,16.75
2022-07-31T11:40:27.864Z,15.98
2022-07-31T11:45:55.272Z,16.38
2022-07-31T11:48:38.053Z,15.27
2022-07-31T11:51:10.240Z,15.10
2022-07-31T11:53:44.210Z,14.40
2022-07-31T11:56:13.235Z,14.88
2022-07-31T11:58:50.433Z,15.50
2022-07-31T12:01:22.511Z,14.43
2022-07-31T12:03:55.817Z,16.45
2022-07-31T12:06:27.274Z,16.25
2022-07-31T12:09:00.190Z,15.18
2022-07-31T12:11:30.993Z,16.00
2022-07-31T12:14:01.473Z,15.63
2022-07-31T12:16:42.452Z,15.75
2022-07-31T12:19:15.259Z,15.55
2022-07-31T12:21:46.714Z,16.25
2022-07-31T12:24:16.075Z,14.93
2022-07-31T12:26:50.038Z,15.95
2022-07-31T12:29:17.996Z,14.70
2022-07-31T12:31:48.474Z,13.40
2022-07-31T12:34:28.730Z,13.55
2022-07-31T12:37:01.455Z,14.77
2022-07-31T12:39:47.493Z,13.32
2022-07-31T12:42:30.446Z,14.32
2022-07-31T12:45:18.406Z,13.95
2022-07-31T12:47:51.379Z,11.88
2022-07-31T12:50:21.998Z,13.35
2022-07-31T12:52:50.008Z,12.93
2022-07-31T12:55:18.140Z,12.73
2022-07-31T12:57:50.452Z,13.15
2022-07-31T13:00:22.487Z,12.75
2022-07-31T13:02:50.661Z,12.57
2022-07-31T13:05:18.934Z,12.68
2022-07-31T13:07:48.562Z,11.88
2022-07-31T13:10:23.874Z,12.88
2022-07-31T13:12:52.626Z,12.23
2022-07-31T13:15:23.112Z,12.40
2022-07-31T13:17:51.362Z,12.77
2022-07-31T13:20:19.637Z,12.30
2022-07-31T13:22:51.182Z,13.07
2022-07-31T13:25:21.121Z,11.73
2022-07-31T13:27:51.769Z,11.75
2022-07-31T13:30:22.264Z,11.45
2022-07-31T13:32:52.380Z,10.10
2022-07-31T13:35:29.028Z,6.68
2022-07-31T13:38:01.704Z,6.90
2022-07-31T13:40:49.105Z,7.22
2022-07-31T13:43:19.456Z,10.27
2022-07-31T13:45:51.041Z,9.20
2022-07-31T13:48:20.364Z,8.40
2022-07-31T13:50:51.278Z,8.23
2022-07-31T13:53:23.244Z,8.07
2022-07-31T13:55:51.390Z,6.03
2022-07-31T13:58:21.245Z,6.30
2022-07-31T14:00:51.726Z,6.75
2022-07-31T14:03:22.448Z,6.53
2022-07-31T14:05:55.273Z,5.97
2022-07-31T14:08:32.905Z,6.18
2022-07-31T14:11:18.994Z,5.85
2022-07-31T14:13:49.641Z,5.93
2022-07-31T14:16:20.038Z,5.90
2022-07-31T14:18:50.429Z,6.35
2022-07-31T14:21:21.464Z,6.63
2022-07-31T14:23:53.406Z,6.43
2022-07-31T14:26:24.650Z,6.55
2022-07-31T14:28:56.554Z,6.00
2022-07-31T14:31:27.917Z,6.15
2022-07-31T14:33:59.246Z,5.22
2022-07-31T14:36:29.943Z,4.50
2022-07-31T14:39:02.010Z,4.60
2022-07-31T14:41:32.155Z,4.65
2022-07-31T14:44:03.895Z,4.78
2022-07-31T14:46:35.448Z,4.68
2022-07-31T14:49:08.239Z,4.90
2022-07-31T14:51:38.378Z,4.32
2022-07-31T14:54:09.636Z,4.22
2022-07-31T14:57:00.113Z,4.40
2022-07-31T14:59:32.005Z,4.25
2022-07-31T15:02:02.967Z,4.57
2022-07-31T15:04:33.242Z,4.10
2022-07-31T15:07:32.563Z,4.30
2022-07-31T15:09:57.974Z,5.20
2022-07-31T15:12:29.125Z,5.32
2022-07-31T15:14:59.934Z,4.60
2022-07-31T15:17:30.491Z,4.57
2022-07-31T15:20:00.189Z,5.38
2022-07-31T15:22:30.459Z,5.18
2022-07-31T15:25:03.238Z,4.80
2022-07-31T15:27:33.725Z,4.45
2022-07-31T15:30:07.797Z,5.32
2022-07-31T15:32:41.313Z,5.10
2022-07-31T15:35:12.787Z,5.65
2022-07-31T15:37:45.579Z,5.00
2022-07-31T15:40:20.350Z,5.03
2022-07-31T15:42:50.960Z,4.97
2022-07-31T15:45:21.801Z,4.57
2022-07-31T15:47:52.969Z,4.03
2022-07-31T15:50:23.347Z,4.07
2022-07-31T15:52:53.154Z,4.53
2022-07-31T15:55:25.973Z,4.20
2022-07-31T15:57:58.841Z,4.70
2022-07-31T16:00:30.781Z,4.18
2022-07-31T16:03:04.623Z,4.03
2022-07-31T16:05:38.759Z,5.13
2022-07-31T16:08:30.685Z,4.63
2022-07-31T16:11:00.774Z,4.63
2022-07-31T16:13:32.304Z,4.78
2022-07-31T16:16:02.899Z,5.15
2022-07-31T16:18:33.633Z,4.28
2022-07-31T16:21:04.938Z,4.03
2022-07-31T16:23:39.194Z,4.65
2022-07-31T16:26:14.114Z,4.82
2022-07-31T16:28:45.271Z,4.72
2022-07-31T16:31:30.279Z,5.00
2022-07-31T16:34:02.564Z,5.03
2022-07-31T16:36:34.330Z,5.93
2022-07-31T16:39:20.045Z,5.65
2022-07-31T16:41:55.013Z,5.90
2022-07-31T16:44:27.560Z,6.28
2022-07-31T16:46:57.599Z,5.75
2022-07-31T16:49:36.776Z,5.85
2022-07-31T16:52:08.599Z,6.10
2022-07-31T16:54:40.570Z,5.97
2022-07-31T16:57:14.422Z,5.97
2022-07-31T16:59:57.408Z,5.95
2022-07-31T17:02:28.415Z,5.82
2022-07-31T17:04:58.920Z,5.05
2022-07-31T17:07:31.249Z,4.70
2022-07-31T17:10:03.317Z,4.10
2022-07-31T17:12:37.923Z,5.07
2022-07-31T17:15:09.955Z,3.90
2022-07-31T17:17:40.473Z,4.00
2022-07-31T17:20:11.016Z,4.20
2022-07-31T17:22:42.965Z,3.75
2022-07-31T17:25:14.502Z,3.78
2022-07-31T17:27:46.577Z,4.28
2022-07-31T17:30:18.130Z,3.97
2022-07-31T17:32:48.178Z,4.40
2022-07-31T17:35:20.340Z,4.00
2022-07-31T17:37:52.469Z,4.22
2022-07-31T17:40:42.605Z,3.93
2022-07-31T17:43:15.707Z,4.35
2022-07-31T17:46:05.349Z,3.95
2022-07-31T17:48:37.560Z,3.30
2022-07-31T17:51:10.995Z,3.60
2022-07-31T17:53:54.622Z,3.88
2022-07-31T17:56:30.208Z,3.60
2022-07-31T17:59:06.741Z,3.58
2022-07-31T18:01:38.795Z,2.80
2022-07-31T18:04:08.935Z,2.85
2022-07-31T18:06:40.765Z,2.72
2022-07-31T18:09:09.494Z,3.40
2022-07-31T18:11:40.365Z,3.72
2022-07-31T18:14:11.723Z,3.38
2022-07-31T18:16:41.648Z,3.28
2022-07-31T18:19:12.865Z,2.90
2022-07-31T18:21:45.118Z,3.00
2022-07-31T18:24:14.109Z,3.28
2022-07-31T18:26:44.727Z,3.33
2022-07-31T18:29:17.170Z,2.92
2022-07-31T18:31:47.648Z,2.70
2022-07-31T18:34:19.044Z,2.50
2022-07-31T18:36:52.913Z,2.40
2022-07-31T18:39:26.848Z,1.70
2022-07-31T18:41:59.120Z,1.50
2022-07-31T18:44:31.498Z,1.80
2022-07-31T18:47:02.202Z,1.70
2022-07-31T18:51:01.761Z,1.25
2022-07-31T18:52:21.340Z,1.33
2022-07-31T18:54:54.372Z,1.42
2022-07-31T18:57:25.550Z,1.38
2022-07-31T18:59:57.612Z,1.60
2022-07-31T19:02:31.014Z,1.70
2022-07-31T19:05:02.841Z,1.60
2022-07-31T19:07:38.204Z,1.60
2022-07-31T19:10:12.175Z,2.17
2022-07-31T19:13:02.836Z,1.52
2022-07-31T19:15:38.258Z,1.90
2022-07-31T19:18:10.180Z,2.10
2022-07-31T19:21:00.310Z,2.00
2022-07-31T19:23:36.449Z,2.13
2022-07-31T19:26:05.204Z,2.10
2022-07-31T19:28:33.610Z,2.58
2022-07-31T19:31:03.104Z,2.35
2022-07-31T19:33:31.158Z,2.90
2022-07-31T19:36:02.195Z,2.50
2022-07-31T19:38:31.348Z,3.38
2022-07-31T19:41:00.226Z,2.95
2022-07-31T19:43:28.507Z,3.13
2022-07-31T19:46:10.741Z,3.30
2022-07-31T19:48:42.256Z,4.00
2022-07-31T19:51:10.992Z,4.45
2022-07-31T19:53:39.447Z,3.67
2022-07-31T19:56:07.952Z,4.03
2022-07-31T19:58:37.063Z,3.90
2022-07-31T20:01:06.672Z,3.00
2022-07-31T20:03:35.186Z,2.22
2022-07-31T20:06:05.507Z,1.80
2022-07-31T20:08:34.057Z,1.92
2022-07-31T20:11:04.033Z,1.30
2022-07-31T20:13:32.781Z,1.10
2022-07-31T20:16:01.482Z,1.05
2022-07-31T20:18:30.565Z,0.85
2022-07-31T20:21:02.541Z,0.90
2022-07-31T20:23:34.552Z,0.65
2022-07-31T20:26:03.576Z,0.88
2022-07-31T20:28:34.740Z,0.80
2022-07-31T20:31:03.853Z,0.70
2022-07-31T20:33:36.194Z,0.70
2022-07-31T20:36:07.750Z,0.70
2022-07-31T20:38:41.593Z,0.40
2022-07-31T20:41:17.447Z,0.57
2022-07-31T20:43:53.770Z,0.38
2022-07-31T20:46:23.482Z,0.40
2022-07-31T20:48:53.382Z,0.40
2022-07-31T20:51:25.797Z,0.45
2022-07-31T20:53:59.103Z,0.68
2022-07-31T20:56:28.135Z,0.77
2022-07-31T20:58:56.749Z,0.88
2022-07-31T21:01:26.277Z,0.80
2022-07-31T21:03:56.270Z,1.02
2022-07-31T21:06:25.607Z,1.30
2022-07-31T21:08:56.163Z,1.05
2022-07-31T21:11:31.178Z,1.20
2022-07-31T21:14:01.062Z,1.90
2022-07-31T21:16:31.186Z,2.17
2022-07-31T21:19:02.477Z,2.38
2022-07-31T21:21:34.011Z,2.50
2022-07-31T21:24:05.761Z,2.20
2022-07-31T21:26:35.111Z,2.50
2022-07-31T21:29:03.764Z,3.40
2022-07-31T21:31:34.304Z,3.30
2022-07-31T21:34:03.678Z,3.08
2022-07-31T21:36:32.109Z,3.95
2022-07-31T21:39:03.417Z,3.78
2022-07-31T21:41:37.142Z,4.35
2022-07-31T21:44:10.470Z,4.38
2022-07-31T21:46:44.023Z,5.03
2022-07-31T21:49:21.634Z,4.57
2022-07-31T21:51:50.888Z,5.28
2022-07-31T21:54:20.991Z,5.40
2022-07-31T21:56:55.657Z,5.82
2022-07-31T21:59:28.897Z,6.13
2022-07-31T22:02:01.830Z,5.55
2022-07-31T22:04:34.822Z,6.25
2022-07-31T22:07:22.942Z,6.97
2022-07-31T22:09:52.185Z,7.32
2022-07-31T22:12:22.505Z,7.22
2022-07-31T22:14:54.112Z,7.07
2022-07-31T22:17:27.305Z,8.20
2022-07-31T22:22:30.957Z,9.07
2022-07-31T22:25:00.811Z,8.57
2022-07-31T22:27:48.482Z,8.43
2022-07-31T22:30:17.475Z,8.63
2022-07-31T22:32:46.941Z,8.18
2022-07-31T22:35:17.046Z,8.82
2022-07-31T22:37:47.094Z,7.38
2022-07-31T22:40:16.511Z,7.93
2022-07-31T22:42:57.574Z,6.70
2022-07-31T22:45:26.713Z,6.65
2022-07-31T22:47:57.986Z,4.80
2022-07-31T22:50:26.419Z,4.90
2022-07-31T22:52:54.544Z,5.20
2022-07-31T22:55:22.614Z,5.18
2022-07-31T22:57:51.943Z,4.20
2022-07-31T23:00:20.047Z,4.93
2022-07-31T23:02:48.197Z,4.85
2022-07-31T23:05:16.345Z,4.93
2022-07-31T23:07:44.412Z,4.95
2022-07-31T23:10:12.820Z,4.68
2022-07-31T23:12:40.744Z,4.57
2022-07-31T23:15:10.274Z,4.40
2022-07-31T23:17:38.391Z,4.93
2022-07-31T23:20:07.421Z,4.20
2022-07-31T23:22:35.581Z,4.57
2022-07-31T23:25:03.794Z,4.15
2022-07-31T23:27:31.737Z,4.13
2022-07-31T23:29:59.983Z,4.97
2022-07-31T23:32:29.549Z,4.63
2022-07-31T23:34:57.853Z,4.20
2022-07-31T23:37:26.132Z,3.97
2022-07-31T23:39:54.343Z,4.13
2022-07-31T23:42:39.909Z,3.55
2022-07-31T23:45:11.524Z,3.65
2022-07-31T23:47:45.424Z,3.10
2022-07-31T23:50:15.425Z,3.20
2022-07-31T23:52:43.886Z,2.90
2022-07-31T23:55:12.962Z,2.90
2022-07-31T23:57:41.008Z,3.10
